createdAt,value
2023-02-06T00:01:36.603Z,70.31
2023-02-06T00:03:59.256Z,71.02
2023-02-06T00:06:21.898Z,71.57
2023-02-06T00:08:44.580Z,71.60
2023-02-06T00:11:09.607Z,72.23
2023-02-06T00:13:32.151Z,72.16
2023-02-06T00:15:54.767Z,72.06
2023-02-06T00:18:17.354Z,72.52
2023-02-06T00:20:40.277Z,73.11
2023-02-06T00:23:03.014Z,73.90
2023-02-06T00:25:25.632Z,74.23
2023-02-06T00:27:48.324Z,73.52
2023-02-06T00:30:12.273Z,73.59
2023-02-06T00:32:35.528Z,73.76
2023-02-06T00:34:58.208Z,73.92
2023-02-06T00:37:20.875Z,73.46
2023-02-06T00:39:43.954Z,73.30
2023-02-06T00:42:06.974Z,73.61
2023-02-06T00:44:29.579Z,74.36
2023-02-06T00:46:52.164Z,74.13
2023-02-06T00:49:15.483Z,75.30
2023-02-06T00:51:39.602Z,74.36
2023-02-06T00:54:02.222Z,73.90
2023-02-06T00:56:24.847Z,72.98
2023-02-06T00:58:47.599Z,72.29
2023-02-06T01:01:10.416Z,72.47
2023-02-06T01:03:34.736Z,72.58
2023-02-06T01:05:57.550Z,72.72
2023-02-06T01:08:20.199Z,72.65
2023-02-06T01:10:44.258Z,72.91
2023-02-06T01:13:07.375Z,72.43
2023-02-06T01:15:29.995Z,73.48
2023-02-06T01:17:52.761Z,73.98
2023-02-06T01:20:16.378Z,73.65
2023-02-06T01:22:39.509Z,74.18
2023-02-06T01:25:02.713Z,74.27
2023-02-06T01:27:25.395Z,74.63
2023-02-06T01:29:48.247Z,74.97
2023-02-06T01:32:10.924Z,75.30
2023-02-06T01:34:33.695Z,76.08
2023-02-06T01:36:57.306Z,75.65
2023-02-06T01:39:19.862Z,76.02
2023-02-06T01:41:43.005Z,75.72
2023-02-06T01:44:22.459Z,76.71
2023-02-06T01:46:47.546Z,76.17
2023-02-06T01:49:16.790Z,77.66
2023-02-06T01:51:40.239Z,77.02
2023-02-06T01:54:06.240Z,76.66
2023-02-06T01:56:38.158Z,76.49
2023-02-06T01:59:03.098Z,76.63
2023-02-06T02:01:26.483Z,77.12
2023-02-06T02:03:52.569Z,77.91
2023-02-06T02:06:20.152Z,78.10
2023-02-06T02:08:45.600Z,77.86
2023-02-06T02:11:11.686Z,78.23
2023-02-06T02:13:36.633Z,78.69
2023-02-06T02:16:07.296Z,78.55
2023-02-06T02:18:29.926Z,78.70
2023-02-06T02:21:25.792Z,78.81
2023-02-06T02:24:03.538Z,78.75
2023-02-06T02:26:34.395Z,78.63
2023-02-06T02:29:17.674Z,78.23
2023-02-06T02:32:16.238Z,77.85
2023-02-06T02:35:20.682Z,78.21
2023-02-06T02:38:05.471Z,78.32
2023-02-06T02:40:38.252Z,78.06
2023-02-06T02:43:18.290Z,77.71
2023-02-06T02:45:55.522Z,77.29
2023-02-06T02:48:26.641Z,77.20
2023-02-06T02:50:49.695Z,77.76
2023-02-06T02:53:13.250Z,79.23
2023-02-06T02:55:36.029Z,78.86
2023-02-06T02:58:06.960Z,78.99
2023-02-06T03:00:31.544Z,78.49
2023-02-06T03:02:57.611Z,77.77
2023-02-06T03:05:24.437Z,77.33
2023-02-06T03:08:15.995Z,77.28
2023-02-06T03:11:02.933Z,77.84
2023-02-06T03:13:41.952Z,77.59
2023-02-06T03:16:10.632Z,77.05
2023-02-06T03:18:51.299Z,77.59
2023-02-06T03:21:17.967Z,77.25
2023-02-06T03:23:43.631Z,77.36
2023-02-06T03:26:09.705Z,76.55
2023-02-06T03:28:38.173Z,77.09
2023-02-06T03:31:05.420Z,77.38
2023-02-06T03:33:33.619Z,76.90
2023-02-06T03:35:58.104Z,76.58
2023-02-06T03:38:21.224Z,76.40
2023-02-06T03:40:46.749Z,76.30
2023-02-06T03:43:12.972Z,76.11
2023-02-06T03:45:43.430Z,75.73
2023-02-06T03:48:17.272Z,76.22
2023-02-06T03:50:42.676Z,78.24
2023-02-06T03:53:05.570Z,77.92
2023-02-06T03:55:28.331Z,76.92
2023-02-06T03:58:04.040Z,77.11
2023-02-06T04:00:29.690Z,77.41
2023-02-06T04:02:55.269Z,77.48
2023-02-06T04:05:19.360Z,77.73
2023-02-06T04:07:41.983Z,78.27
2023-02-06T04:10:05.323Z,78.33
2023-02-06T04:12:28.387Z,78.04
2023-02-06T04:14:51.655Z,78.12
2023-02-06T04:17:21.118Z,78.12
2023-02-06T04:19:54.135Z,78.21
2023-02-06T04:22:17.236Z,79.07
2023-02-06T04:24:41.452Z,79.12
2023-02-06T04:27:04.128Z,79.25
2023-02-06T04:29:26.827Z,79.01
2023-02-06T04:31:49.716Z,79.06
2023-02-06T04:34:12.428Z,79.50
2023-02-06T04:36:35.491Z,79.32
2023-02-06T04:38:58.231Z,79.10
2023-02-06T04:41:21.004Z,80.64
2023-02-06T04:43:43.643Z,80.53
2023-02-06T04:46:06.197Z,81.02
2023-02-06T04:48:29.028Z,80.77
2023-02-06T04:50:52.174Z,81.05
2023-02-06T04:53:35.702Z,80.94
2023-02-06T04:56:10.675Z,80.84
2023-02-06T04:58:33.766Z,80.70
2023-02-06T05:00:56.355Z,80.09
2023-02-06T05:03:19.088Z,79.85
2023-02-06T05:05:41.844Z,80.02
2023-02-06T05:08:04.498Z,79.94
2023-02-06T05:10:27.177Z,79.59
2023-02-06T05:12:51.057Z,78.94
2023-02-06T05:15:14.417Z,78.93
2023-02-06T05:17:37.257Z,79.36
2023-02-06T05:19:59.968Z,79.42
2023-02-06T05:22:25.868Z,79.47
2023-02-06T05:24:48.484Z,79.28
2023-02-06T05:27:11.122Z,79.09
2023-02-06T05:29:34.087Z,78.88
2023-02-06T05:31:56.996Z,78.89
2023-02-06T05:34:19.707Z,79.04
2023-02-06T05:36:42.324Z,79.38
2023-02-06T05:39:04.956Z,78.96
2023-02-06T05:41:27.894Z,79.48
2023-02-06T05:43:50.804Z,79.26
2023-02-06T05:46:13.850Z,79.68
2023-02-06T05:48:36.461Z,79.86
2023-02-06T05:50:59.035Z,79.85
2023-02-06T05:53:21.631Z,79.93
2023-02-06T05:55:44.302Z,79.67
2023-02-06T05:58:06.918Z,79.39
2023-02-06T06:00:29.900Z,79.07
2023-02-06T06:02:52.911Z,79.02
2023-02-06T06:05:15.634Z,78.87
2023-02-06T06:07:38.506Z,78.79
2023-02-06T06:10:01.362Z,79.10
2023-02-06T06:12:23.975Z,78.33
2023-02-06T06:14:46.711Z,78.24
2023-02-06T06:17:09.730Z,77.76
2023-02-06T06:19:32.703Z,77.85
2023-02-06T06:21:57.884Z,77.33
2023-02-06T06:24:20.926Z,78.01
2023-02-06T06:26:43.536Z,77.49
2023-02-06T06:29:07.460Z,77.10
2023-02-06T06:31:30.425Z,76.60
2023-02-06T06:33:54.306Z,76.04
2023-02-06T06:36:17.096Z,75.72
2023-02-06T06:38:40.059Z,75.14
2023-02-06T06:41:03.073Z,74.31
2023-02-06T06:43:25.977Z,74.37
2023-02-06T06:45:48.655Z,74.60
2023-02-06T06:48:11.497Z,74.64
2023-02-06T06:50:34.331Z,74.23
2023-02-06T06:52:57.166Z,73.83
2023-02-06T06:55:20.026Z,72.74
2023-02-06T06:57:42.762Z,73.19
2023-02-06T07:00:09.056Z,72.98
2023-02-06T07:02:32.685Z,72.44
2023-02-06T07:04:55.932Z,71.62
2023-02-06T07:07:19.778Z,72.47
2023-02-06T07:09:46.981Z,71.92
2023-02-06T07:12:09.820Z,71.79
2023-02-06T07:14:32.492Z,71.23
2023-02-06T07:16:56.330Z,71.49
2023-02-06T07:19:19.065Z,70.53
2023-02-06T07:21:41.828Z,71.06
2023-02-06T07:24:05.702Z,70.38
2023-02-06T07:26:28.766Z,69.71
2023-02-06T07:28:52.803Z,68.93
2023-02-06T07:31:16.283Z,68.69
2023-02-06T07:33:39.162Z,69.51
2023-02-06T07:36:04.071Z,69.67
2023-02-06T07:38:26.922Z,68.61
2023-02-06T07:40:49.643Z,67.58
2023-02-06T07:43:14.526Z,66.83
2023-02-06T07:45:37.593Z,66.32
2023-02-06T07:48:03.140Z,66.69
2023-02-06T07:50:26.171Z,65.92
2023-02-06T07:52:48.882Z,63.80
2023-02-06T07:55:11.599Z,64.09
2023-02-06T07:57:34.397Z,63.65
2023-02-06T07:59:57.162Z,63.88
2023-02-06T08:02:21.666Z,63.69
2023-02-06T08:04:44.832Z,62.64
2023-02-06T08:07:09.943Z,63.04
2023-02-06T08:09:33.466Z,63.65
2023-02-06T08:11:56.918Z,62.44
2023-02-06T08:14:19.627Z,63.33
2023-02-06T08:16:42.427Z,63.25
2023-02-06T08:19:07.003Z,61.92
2023-02-06T08:21:29.921Z,58.23
2023-02-06T08:24:00.166Z,58.30
2023-02-06T08:26:23.837Z,57.48
2023-02-06T08:28:48.059Z,57.70
2023-02-06T08:31:21.765Z,58.40
2023-02-06T08:33:47.716Z,56.48
2023-02-06T08:36:11.744Z,56.11
2023-02-06T08:38:35.304Z,55.54
2023-02-06T08:40:58.128Z,53.93
2023-02-06T08:43:21.973Z,55.37
2023-02-06T08:45:50.258Z,55.21
2023-02-06T08:48:12.954Z,55.67
2023-02-06T08:50:35.942Z,54.71
2023-02-06T08:53:00.047Z,53.91
2023-02-06T08:55:25.254Z,54.33
2023-02-06T08:57:48.200Z,52.36
2023-02-06T09:00:11.597Z,51.26
2023-02-06T09:02:35.902Z,52.24
2023-02-06T09:04:59.421Z,51.76
2023-02-06T09:07:22.639Z,51.54
2023-02-06T09:09:46.504Z,50.27
2023-02-06T09:12:11.286Z,49.78
2023-02-06T09:14:35.479Z,48.77
2023-02-06T09:16:58.485Z,49.16
2023-02-06T09:19:21.286Z,50.19
2023-02-06T09:21:44.219Z,49.20
2023-02-06T09:24:09.183Z,49.23
2023-02-06T09:26:53.525Z,49.34
2023-02-06T09:29:21.373Z,49.84
2023-02-06T09:31:44.440Z,49.41
2023-02-06T09:34:08.418Z,50.26
2023-02-06T09:36:33.852Z,49.49
2023-02-06T09:38:58.351Z,48.45
2023-02-06T09:41:26.779Z,49.27
2023-02-06T09:43:55.512Z,49.11
2023-02-06T09:46:23.521Z,47.75
2023-02-06T09:48:46.853Z,46.50
2023-02-06T09:51:21.964Z,47.38
2023-02-06T09:53:57.333Z,49.60
2023-02-06T09:56:56.494Z,51.02
2023-02-06T09:59:29.941Z,49.56
2023-02-06T10:02:18.075Z,50.47
2023-02-06T10:04:54.694Z,47.50
2023-02-06T10:07:40.177Z,46.67
2023-02-06T10:10:14.247Z,47.37
2023-02-06T10:12:46.082Z,47.34
2023-02-06T10:15:16.394Z,47.14
2023-02-06T10:18:05.387Z,47.02
2023-02-06T10:20:45.062Z,47.50
2023-02-06T10:23:40.329Z,47.00
2023-02-06T10:26:12.417Z,46.39
2023-02-06T10:28:35.450Z,46.23
2023-02-06T10:31:28.149Z,45.79
2023-02-06T10:34:09.362Z,46.41
2023-02-06T10:36:37.625Z,47.05
2023-02-06T10:39:20.553Z,47.23
2023-02-06T10:41:55.762Z,47.25
2023-02-06T10:44:31.962Z,46.97
2023-02-06T10:46:55.863Z,46.92
2023-02-06T10:50:01.408Z,48.93
2023-02-06T10:52:29.181Z,50.16
2023-02-06T10:54:55.201Z,51.66
2023-02-06T10:57:21.952Z,49.14
2023-02-06T10:59:48.209Z,49.58
2023-02-06T11:02:25.620Z,48.52
2023-02-06T11:05:16.396Z,49.69
2023-02-06T11:07:43.853Z,49.96
2023-02-06T11:10:07.628Z,49.85
2023-02-06T11:12:39.067Z,50.26
2023-02-06T11:15:08.588Z,51.65
2023-02-06T11:17:32.002Z,50.52
2023-02-06T11:20:05.395Z,49.69
2023-02-06T11:22:34.893Z,47.71
2023-02-06T11:25:05.641Z,47.99
2023-02-06T11:27:28.898Z,48.27
2023-02-06T11:29:53.839Z,49.27
2023-02-06T11:32:58.990Z,49.18
2023-02-06T11:35:48.111Z,48.92
2023-02-06T11:38:19.257Z,48.28
2023-02-06T11:40:42.595Z,48.32
2023-02-06T11:43:24.992Z,50.02
2023-02-06T11:45:49.152Z,50.63
2023-02-06T11:48:32.044Z,50.27
2023-02-06T11:50:55.317Z,49.68
2023-02-06T11:53:18.691Z,49.95
2023-02-06T11:55:42.866Z,49.50
2023-02-06T11:58:14.353Z,49.94
2023-02-06T12:00:40.428Z,49.17
2023-02-06T12:03:04.570Z,48.63
2023-02-06T12:05:31.058Z,48.94
2023-02-06T12:08:00.561Z,48.61
2023-02-06T12:10:25.220Z,48.59
2023-02-06T12:12:56.389Z,48.60
2023-02-06T12:15:46.962Z,47.73
2023-02-06T12:18:43.939Z,47.57
2023-02-06T12:21:34.339Z,49.36
2023-02-06T12:24:03.644Z,49.61
2023-02-06T12:26:30.184Z,49.20
2023-02-06T12:29:04.834Z,50.28
2023-02-06T12:31:44.315Z,50.09
2023-02-06T12:34:31.800Z,50.94
2023-02-06T12:37:21.634Z,50.39
2023-02-06T12:39:46.456Z,50.68
2023-02-06T12:42:37.705Z,50.33
2023-02-06T12:45:06.273Z,51.13
2023-02-06T12:47:49.240Z,50.82
2023-02-06T12:50:32.619Z,51.14
2023-02-06T12:53:28.694Z,50.21
2023-02-06T12:56:07.434Z,50.86
2023-02-06T12:58:39.003Z,50.20
2023-02-06T13:01:06.735Z,49.46
2023-02-06T13:03:35.002Z,48.94
2023-02-06T13:06:15.792Z,49.22
2023-02-06T13:08:57.855Z,49.26
2023-02-06T13:11:38.730Z,49.47
2023-02-06T13:14:24.743Z,50.16
2023-02-06T13:16:53.289Z,49.48
2023-02-06T13:19:36.511Z,49.80
2023-02-06T13:22:08.242Z,50.57
2023-02-06T13:24:31.010Z,49.71
2023-02-06T13:26:55.442Z,50.49
2023-02-06T13:29:29.176Z,49.87
2023-02-06T13:32:10.531Z,50.59
2023-02-06T13:34:33.252Z,51.06
2023-02-06T13:36:55.975Z,51.98
2023-02-06T13:39:31.248Z,52.36
2023-02-06T13:41:57.935Z,51.54
2023-02-06T13:44:39.319Z,50.90
2023-02-06T13:47:08.664Z,50.79
2023-02-06T13:49:59.081Z,52.27
2023-02-06T13:52:30.671Z,52.62
2023-02-06T13:55:29.596Z,52.87
2023-02-06T13:58:01.257Z,52.63
2023-02-06T14:00:29.134Z,53.25
2023-02-06T14:02:56.397Z,52.80
2023-02-06T14:05:22.220Z,52.70
2023-02-06T14:08:18.340Z,53.55
2023-02-06T14:11:21.345Z,53.77
2023-02-06T14:14:04.745Z,53.37
2023-02-06T14:17:02.169Z,53.04
2023-02-06T14:19:38.831Z,52.45
2023-02-06T14:22:01.510Z,52.75
2023-02-06T14:24:48.182Z,53.05
2023-02-06T14:27:23.684Z,51.78
2023-02-06T14:30:05.431Z,53.09
2023-02-06T14:32:54.576Z,54.45
2023-02-06T14:35:43.536Z,55.12
2023-02-06T14:38:26.994Z,55.32
2023-02-06T14:40:52.663Z,56.13
2023-02-06T14:43:21.004Z,57.29
2023-02-06T14:46:08.361Z,58.05
2023-02-06T14:48:43.262Z,58.21
2023-02-06T14:51:08.134Z,59.07
2023-02-06T14:53:39.372Z,57.75
2023-02-06T14:56:15.985Z,57.78
2023-02-06T14:58:38.655Z,58.21
2023-02-06T15:01:13.423Z,58.97
2023-02-06T15:03:36.268Z,59.14
2023-02-06T15:06:07.543Z,58.34
2023-02-06T15:08:32.486Z,57.80
2023-02-06T15:11:00.408Z,57.91
2023-02-06T15:13:35.008Z,58.98
2023-02-06T15:15:57.898Z,58.48
2023-02-06T15:18:20.934Z,58.63
2023-02-06T15:20:52.098Z,58.94
2023-02-06T15:23:30.756Z,59.37
2023-02-06T15:26:03.453Z,60.02
2023-02-06T15:28:31.225Z,60.23
2023-02-06T15:30:56.098Z,61.20
2023-02-06T15:33:40.961Z,61.12
2023-02-06T15:36:04.433Z,61.55
2023-02-06T15:38:50.319Z,61.48
2023-02-06T15:41:13.178Z,61.93
2023-02-06T15:43:36.258Z,62.54
2023-02-06T15:46:02.502Z,62.61
2023-02-06T15:48:30.844Z,63.21
2023-02-06T15:51:02.544Z,63.90
2023-02-06T15:53:33.625Z,63.74
2023-02-06T15:55:56.741Z,63.69
2023-02-06T15:58:20.701Z,64.35
2023-02-06T16:00:43.549Z,64.49
2023-02-06T16:03:09.168Z,64.31
2023-02-06T16:05:40.661Z,64.62
2023-02-06T16:08:04.920Z,64.96
2023-02-06T16:10:29.081Z,65.28
2023-02-06T16:12:52.988Z,64.96
2023-02-06T16:15:37.581Z,65.37
2023-02-06T16:18:18.294Z,65.62
2023-02-06T16:20:42.932Z,65.85
2023-02-06T16:23:26.525Z,65.89
2023-02-06T16:26:26.287Z,66.59
2023-02-06T16:28:58.336Z,66.67
2023-02-06T16:31:21.171Z,67.53
2023-02-06T16:33:46.311Z,67.45
2023-02-06T16:36:16.938Z,67.77
2023-02-06T16:38:39.913Z,68.24
2023-02-06T16:41:02.682Z,68.31
2023-02-06T16:43:29.926Z,67.86
2023-02-06T16:45:52.630Z,68.66
2023-02-06T16:48:17.661Z,69.14
2023-02-06T16:50:41.279Z,69.16
2023-02-06T16:53:03.873Z,69.48
2023-02-06T16:55:27.264Z,69.58
2023-02-06T16:57:53.323Z,70.05
2023-02-06T17:00:22.855Z,70.05
2023-02-06T17:02:47.470Z,70.54
2023-02-06T17:05:10.480Z,70.36
2023-02-06T17:07:35.111Z,70.46
2023-02-06T17:09:59.365Z,70.52
2023-02-06T17:12:22.893Z,70.79
2023-02-06T17:14:46.137Z,70.78
2023-02-06T17:17:13.688Z,70.89
2023-02-06T17:19:36.598Z,70.69
2023-02-06T17:21:59.395Z,70.67
2023-02-06T17:24:22.175Z,70.30
2023-02-06T17:26:44.983Z,70.20
2023-02-06T17:29:07.628Z,70.17
2023-02-06T17:31:30.598Z,70.31
2023-02-06T17:33:53.314Z,69.85
2023-02-06T17:36:21.612Z,69.67
2023-02-06T17:38:45.247Z,69.61
2023-02-06T17:41:08.032Z,69.23
2023-02-06T17:43:30.956Z,70.08
2023-02-06T17:45:53.726Z,69.32
2023-02-06T17:48:17.135Z,68.73
2023-02-06T17:50:41.274Z,68.81
2023-02-06T17:53:06.160Z,68.16
2023-02-06T17:55:28.884Z,68.35
2023-02-06T17:57:52.184Z,68.15
2023-02-06T18:00:17.287Z,68.62
2023-02-06T18:02:40.270Z,69.26
2023-02-06T18:05:04.189Z,69.53
2023-02-06T18:07:27.839Z,69.97
2023-02-06T18:09:51.025Z,70.47
2023-02-06T18:12:15.508Z,71.12
2023-02-06T18:14:39.660Z,71.45
2023-02-06T18:17:05.267Z,71.13
2023-02-06T18:19:28.789Z,70.90
2023-02-06T18:21:52.238Z,71.53
2023-02-06T18:24:14.868Z,71.28
2023-02-06T18:26:38.684Z,71.28
2023-02-06T18:29:05.527Z,71.53
2023-02-06T18:31:33.312Z,71.17
2023-02-06T18:33:57.108Z,71.17
2023-02-06T18:36:20.886Z,72.14
2023-02-06T18:38:43.860Z,71.83
2023-02-06T18:41:06.878Z,72.60
2023-02-06T18:43:29.499Z,72.35
2023-02-06T18:45:52.698Z,73.18
2023-02-06T18:48:16.232Z,72.97
2023-02-06T18:50:42.234Z,73.37
2023-02-06T18:53:06.839Z,73.98
2023-02-06T18:55:30.051Z,74.65
2023-02-06T18:57:53.405Z,75.06
2023-02-06T19:00:18.653Z,74.25
2023-02-06T19:02:41.994Z,74.72
2023-02-06T19:05:04.734Z,75.21
2023-02-06T19:07:28.154Z,75.20
2023-02-06T19:09:59.303Z,73.71
2023-02-06T19:12:22.812Z,73.40
2023-02-06T19:14:45.763Z,73.33
2023-02-06T19:17:08.697Z,73.64
2023-02-06T19:19:31.798Z,73.17
2023-02-06T19:21:56.276Z,73.36
2023-02-06T19:24:20.355Z,73.46
2023-02-06T19:26:43.625Z,73.82
2023-02-06T19:29:06.682Z,74.49
2023-02-06T19:31:31.985Z,74.23
2023-02-06T19:33:58.424Z,73.92
2023-02-06T19:36:23.267Z,74.38
2023-02-06T19:38:46.674Z,74.20
2023-02-06T19:41:18.463Z,74.33
2023-02-06T19:43:42.671Z,74.76
2023-02-06T19:46:07.482Z,75.09
2023-02-06T19:48:30.702Z,75.59
2023-02-06T19:50:53.391Z,75.70
2023-02-06T19:53:17.413Z,75.56
2023-02-06T19:55:47.282Z,74.83
2023-02-06T19:58:10.384Z,75.21
2023-02-06T20:00:33.306Z,74.75
2023-02-06T20:02:56.283Z,74.78
2023-02-06T20:05:27.093Z,74.85
2023-02-06T20:07:49.864Z,74.80
2023-02-06T20:10:13.432Z,75.49
2023-02-06T20:12:37.552Z,75.77
2023-02-06T20:15:01.052Z,75.31
2023-02-06T20:17:25.280Z,75.51
2023-02-06T20:19:48.451Z,75.19
2023-02-06T20:22:11.480Z,74.88
2023-02-06T20:24:34.778Z,75.47
2023-02-06T20:27:01.436Z,75.42
2023-02-06T20:29:28.929Z,75.56
2023-02-06T20:31:51.894Z,75.07
2023-02-06T20:34:14.944Z,76.01
2023-02-06T20:36:38.921Z,76.14
2023-02-06T20:39:02.424Z,75.92
2023-02-06T20:41:31.086Z,76.16
2023-02-06T20:43:57.286Z,76.97
2023-02-06T20:46:21.602Z,76.11
2023-02-06T20:48:46.196Z,75.14
2023-02-06T20:51:08.896Z,74.65
2023-02-06T20:53:32.308Z,75.11
2023-02-06T20:55:55.113Z,74.31
2023-02-06T20:58:18.356Z,75.68
2023-02-06T21:00:41.193Z,75.48
2023-02-06T21:03:04.550Z,75.86
2023-02-06T21:05:27.424Z,74.48
2023-02-06T21:07:50.110Z,73.77
2023-02-06T21:10:16.001Z,73.83
2023-02-06T21:12:38.934Z,74.66
2023-02-06T21:15:01.618Z,74.58
2023-02-06T21:17:24.327Z,74.08
2023-02-06T21:19:47.817Z,75.07
2023-02-06T21:22:10.637Z,74.82
2023-02-06T21:24:33.331Z,75.21
2023-02-06T21:26:56.014Z,75.20
2023-02-06T21:29:19.162Z,75.29
2023-02-06T21:31:43.322Z,75.97
2023-02-06T21:34:14.362Z,75.83
2023-02-06T21:36:38.951Z,76.52
2023-02-06T21:39:02.107Z,77.07
2023-02-06T21:41:24.796Z,77.10
2023-02-06T21:43:47.587Z,77.75
2023-02-06T21:46:12.176Z,77.52
2023-02-06T21:48:35.443Z,78.00
2023-02-06T21:50:58.310Z,77.48
2023-02-06T21:53:21.136Z,77.58
2023-02-06T21:55:45.041Z,77.51
2023-02-06T21:58:07.772Z,78.53
2023-02-06T22:00:30.521Z,78.26
2023-02-06T22:02:53.171Z,77.94
2023-02-06T22:05:15.834Z,77.96
2023-02-06T22:07:38.390Z,78.28
2023-02-06T22:10:01.485Z,78.16
2023-02-06T22:12:24.067Z,78.04
2023-02-06T22:14:46.691Z,77.65
2023-02-06T22:17:09.593Z,77.54
2023-02-06T22:19:34.762Z,77.95
2023-02-06T22:21:57.454Z,79.29
2023-02-06T22:24:20.149Z,79.44
2023-02-06T22:26:43.695Z,79.35
2023-02-06T22:29:08.035Z,78.60
2023-02-06T22:31:33.287Z,78.12
2023-02-06T22:33:58.165Z,78.65
2023-02-06T22:36:26.386Z,78.28
2023-02-06T22:38:56.047Z,77.79
2023-02-06T22:41:18.923Z,77.59
2023-02-06T22:43:42.887Z,77.56
2023-02-06T22:46:07.025Z,77.96
2023-02-06T22:48:30.020Z,77.67
2023-02-06T22:50:53.551Z,78.31
2023-02-06T22:53:31.902Z,78.46
2023-02-06T22:56:13.322Z,78.49
2023-02-06T22:58:36.611Z,77.79
2023-02-06T23:01:03.636Z,77.87
2023-02-06T23:03:26.314Z,78.64
2023-02-06T23:05:48.882Z,77.98
2023-02-06T23:08:11.466Z,78.11
2023-02-06T23:10:34.300Z,78.07
2023-02-06T23:12:56.890Z,78.71
2023-02-06T23:15:19.450Z,78.31
2023-02-06T23:17:42.090Z,78.12
2023-02-06T23:20:07.128Z,77.93
2023-02-06T23:22:30.394Z,77.92
2023-02-06T23:24:53.012Z,77.54
2023-02-06T23:27:15.808Z,78.41
2023-02-06T23:29:38.450Z,78.16
2023-02-06T23:32:01.622Z,78.31
2023-02-06T23:34:24.653Z,78.03
2023-02-06T23:36:47.535Z,78.17
2023-02-06T23:39:11.760Z,78.22
2023-02-06T23:41:35.107Z,78.19
2023-02-06T23:44:00.056Z,78.40
2023-02-06T23:46:23.690Z,78.82
2023-02-06T23:48:48.141Z,78.97
2023-02-06T23:51:10.902Z,78.85
2023-02-06T23:53:33.587Z,78.30
2023-02-06T23:55:57.199Z,78.10
2023-02-06T23:58:20.142Z,79.11
